createdAt,value
2023-02-26T00:01:33.259Z,68.85
2023-02-26T00:04:39.194Z,67.91
2023-02-26T00:07:46.556Z,67.89
2023-02-26T00:10:52.102Z,68.67
2023-02-26T00:14:02.175Z,68.55
2023-02-26T00:17:36.994Z,68.66
2023-02-26T00:20:44.230Z,68.44
2023-02-26T00:23:50.294Z,68.47
2023-02-26T00:26:57.456Z,68.83
2023-02-26T00:30:12.527Z,68.99
2023-02-26T00:33:20.747Z,69.37
2023-02-26T00:36:34.015Z,69.64
2023-02-26T00:39:54.570Z,69.82
2023-02-26T00:43:00.815Z,70.63
2023-02-26T00:46:26.606Z,70.53
2023-02-26T00:50:00.194Z,71.00
2023-02-26T00:53:20.886Z,71.25
2023-02-26T00:56:26.702Z,70.75
2023-02-26T00:59:33.468Z,70.86
2023-02-26T01:02:44.767Z,70.75
2023-02-26T01:05:51.709Z,70.05
2023-02-26T01:09:14.143Z,69.48
2023-02-26T01:12:21.310Z,69.73
2023-02-26T01:15:27.447Z,69.10
2023-02-26T01:18:48.360Z,68.72
2023-02-26T01:22:06.788Z,69.15
2023-02-26T01:25:24.710Z,68.92
2023-02-26T01:28:31.552Z,68.61
2023-02-26T01:31:52.668Z,68.08
2023-02-26T01:35:16.515Z,67.68
2023-02-26T01:38:35.382Z,67.81
2023-02-26T01:41:50.920Z,67.35
2023-02-26T01:45:06.223Z,67.30
2023-02-26T01:48:36.478Z,67.53
2023-02-26T01:51:52.921Z,67.91
2023-02-26T01:54:58.410Z,68.17
2023-02-26T01:58:06.826Z,67.73
2023-02-26T02:01:13.324Z,66.74
2023-02-26T02:04:21.344Z,66.46
2023-02-26T02:07:29.603Z,66.55
2023-02-26T02:10:36.342Z,66.66
2023-02-26T02:14:04.661Z,67.02
2023-02-26T02:17:23.052Z,66.36
2023-02-26T02:21:26.339Z,66.12
2023-02-26T02:25:01.099Z,66.62
2023-02-26T02:28:30.890Z,66.80
2023-02-26T02:31:49.029Z,66.54
2023-02-26T02:35:06.095Z,66.84
2023-02-26T02:38:22.141Z,66.97
2023-02-26T02:41:46.486Z,66.90
2023-02-26T02:45:02.071Z,67.70
2023-02-26T02:48:20.892Z,65.92
2023-02-26T02:51:35.644Z,66.03
2023-02-26T02:54:57.401Z,66.05
2023-02-26T02:58:09.859Z,65.46
2023-02-26T03:01:25.230Z,65.73
2023-02-26T03:04:33.854Z,65.29
2023-02-26T03:07:53.360Z,65.76
2023-02-26T03:11:00.088Z,65.91
2023-02-26T03:14:10.406Z,65.26
2023-02-26T03:17:32.322Z,65.76
2023-02-26T03:20:59.160Z,66.03
2023-02-26T03:24:19.186Z,65.05
2023-02-26T03:27:35.820Z,65.10
2023-02-26T03:30:50.511Z,64.62
2023-02-26T03:34:05.066Z,65.41
2023-02-26T03:37:28.317Z,64.13
2023-02-26T03:40:43.709Z,63.87
2023-02-26T03:44:02.283Z,64.01
2023-02-26T03:47:16.854Z,63.40
2023-02-26T03:50:35.701Z,64.12
2023-02-26T03:54:25.806Z,63.47
2023-02-26T03:57:46.974Z,63.93
2023-02-26T04:01:15.905Z,63.21
2023-02-26T04:04:31.566Z,63.29
2023-02-26T04:07:38.417Z,63.68
2023-02-26T04:10:56.548Z,63.57
2023-02-26T04:14:03.186Z,63.80
2023-02-26T04:17:13.128Z,63.15
2023-02-26T04:20:20.037Z,62.30
2023-02-26T04:23:25.628Z,62.20
2023-02-26T04:26:35.295Z,61.79
2023-02-26T04:29:40.897Z,62.43
2023-02-26T04:32:47.262Z,61.64
2023-02-26T04:35:53.962Z,62.56
2023-02-26T04:39:00.428Z,62.03
2023-02-26T04:42:08.825Z,62.65
2023-02-26T04:45:15.823Z,62.57
2023-02-26T04:48:21.273Z,62.53
2023-02-26T04:51:27.910Z,62.95
2023-02-26T04:54:35.147Z,63.22
2023-02-26T04:57:44.341Z,63.25
2023-02-26T05:00:53.841Z,63.34
2023-02-26T05:04:01.449Z,63.45
2023-02-26T05:07:08.506Z,62.67
2023-02-26T05:10:15.904Z,63.53
2023-02-26T05:13:25.222Z,63.00
2023-02-26T05:16:31.645Z,62.70
2023-02-26T05:19:37.198Z,63.42
2023-02-26T05:22:45.361Z,62.74
2023-02-26T05:25:51.698Z,62.84
2023-02-26T05:29:00.974Z,62.81
2023-02-26T05:32:07.198Z,63.84
2023-02-26T05:35:14.876Z,62.56
2023-02-26T05:38:20.567Z,62.79
2023-02-26T05:41:27.134Z,63.03
2023-02-26T05:44:35.599Z,63.63
2023-02-26T05:47:41.991Z,62.60
2023-02-26T05:50:47.927Z,63.79
2023-02-26T05:53:54.235Z,63.47
2023-02-26T05:56:59.926Z,63.32
2023-02-26T06:00:13.331Z,62.94
2023-02-26T06:03:19.056Z,63.72
2023-02-26T06:06:27.294Z,62.98
2023-02-26T06:09:32.989Z,63.51
2023-02-26T06:12:40.155Z,63.38
2023-02-26T06:15:48.611Z,64.05
2023-02-26T06:18:55.093Z,63.61
2023-02-26T06:22:00.709Z,64.08
2023-02-26T06:25:08.120Z,64.00
2023-02-26T06:28:13.505Z,63.87
2023-02-26T06:31:22.886Z,63.92
2023-02-26T06:34:28.369Z,63.92
2023-02-26T06:37:34.852Z,63.83
2023-02-26T06:40:40.398Z,64.09
2023-02-26T06:43:46.759Z,64.32
2023-02-26T06:46:55.273Z,64.13
2023-02-26T06:50:03.115Z,63.77
2023-02-26T06:53:08.620Z,63.47
2023-02-26T06:56:15.160Z,63.51
2023-02-26T06:59:20.778Z,63.08
2023-02-26T07:02:30.163Z,63.36
2023-02-26T07:05:35.565Z,63.13
2023-02-26T07:08:43.438Z,62.96
2023-02-26T07:11:49.272Z,62.68
2023-02-26T07:14:55.838Z,62.30
2023-02-26T07:18:04.212Z,62.15
2023-02-26T07:21:10.563Z,61.29
2023-02-26T07:24:16.177Z,61.86
2023-02-26T07:27:30.156Z,61.24
2023-02-26T07:30:36.135Z,61.06
2023-02-26T07:33:45.313Z,61.25
2023-02-26T07:36:50.817Z,60.36
2023-02-26T07:39:57.084Z,60.80
2023-02-26T07:43:02.755Z,60.99
2023-02-26T07:46:09.702Z,61.06
2023-02-26T07:49:18.083Z,61.17
2023-02-26T07:52:24.469Z,61.06
2023-02-26T07:55:30.198Z,61.06
2023-02-26T07:58:36.904Z,60.47
2023-02-26T08:01:42.648Z,59.80
2023-02-26T08:04:52.205Z,60.24
2023-02-26T08:07:57.684Z,59.95
2023-02-26T08:11:06.276Z,60.03
2023-02-26T08:14:14.464Z,60.35
2023-02-26T08:17:20.759Z,60.88
2023-02-26T08:20:29.155Z,60.58
2023-02-26T08:23:35.599Z,60.55
2023-02-26T08:26:42.074Z,59.90
2023-02-26T08:29:51.596Z,60.41
2023-02-26T08:32:57.533Z,60.28
2023-02-26T08:36:07.094Z,62.53
2023-02-26T08:39:12.917Z,64.78
2023-02-26T08:42:20.686Z,65.53
2023-02-26T08:45:26.150Z,63.65
2023-02-26T08:48:32.480Z,62.05
2023-02-26T08:51:40.633Z,61.19
2023-02-26T08:55:20.083Z,59.61
2023-02-26T08:58:25.547Z,59.83
2023-02-26T09:01:31.795Z,59.53
2023-02-26T09:04:37.412Z,60.29
2023-02-26T09:07:47.574Z,59.20
2023-02-26T09:10:53.422Z,60.48
2023-02-26T09:13:59.905Z,59.49
2023-02-26T09:17:05.670Z,59.01
2023-02-26T09:20:15.554Z,60.06
2023-02-26T09:23:23.741Z,58.56
2023-02-26T09:26:30.056Z,56.48
2023-02-26T09:29:35.726Z,54.29
2023-02-26T09:32:42.315Z,54.28
2023-02-26T09:35:47.985Z,54.45
2023-02-26T09:38:57.100Z,55.65
2023-02-26T09:42:22.552Z,55.07
2023-02-26T09:45:36.961Z,55.04
2023-02-26T09:48:46.107Z,54.37
2023-02-26T09:52:09.845Z,52.74
2023-02-26T09:55:32.458Z,54.04
2023-02-26T09:58:44.585Z,53.15
2023-02-26T10:02:02.096Z,52.88
2023-02-26T10:05:24.020Z,53.19
2023-02-26T10:08:43.008Z,52.14
2023-02-26T10:12:03.560Z,52.76
2023-02-26T10:15:18.423Z,54.07
2023-02-26T10:18:34.725Z,55.86
2023-02-26T10:21:48.255Z,56.00
2023-02-26T10:25:05.092Z,56.56
2023-02-26T10:28:48.669Z,56.91
2023-02-26T10:32:10.448Z,56.52
2023-02-26T10:35:25.978Z,55.81
2023-02-26T10:38:35.874Z,56.07
2023-02-26T10:41:41.578Z,55.94
2023-02-26T10:45:11.082Z,55.83
2023-02-26T10:48:43.687Z,56.10
2023-02-26T10:51:52.992Z,56.25
2023-02-26T10:55:38.062Z,56.01
2023-02-26T10:58:44.741Z,55.03
2023-02-26T11:01:57.044Z,51.77
2023-02-26T11:05:07.925Z,52.18
2023-02-26T11:08:21.877Z,52.02
2023-02-26T11:11:50.283Z,53.70
2023-02-26T11:14:56.428Z,54.04
2023-02-26T11:18:07.030Z,55.69
2023-02-26T11:21:21.010Z,56.46
2023-02-26T11:24:37.574Z,55.65
2023-02-26T11:27:43.310Z,55.76
2023-02-26T11:30:54.497Z,55.67
2023-02-26T11:34:08.559Z,54.20
2023-02-26T11:37:15.119Z,53.70
2023-02-26T11:40:32.453Z,53.03
2023-02-26T11:43:45.390Z,53.52
2023-02-26T11:46:58.826Z,52.98
2023-02-26T11:50:18.962Z,52.98
2023-02-26T11:53:34.313Z,53.36
2023-02-26T11:56:45.674Z,54.45
2023-02-26T11:59:56.127Z,55.19
2023-02-26T12:03:08.436Z,56.02
2023-02-26T12:06:22.800Z,55.75
2023-02-26T12:09:30.293Z,56.27
2023-02-26T12:13:03.566Z,56.79
2023-02-26T12:16:26.064Z,57.70
2023-02-26T12:19:55.546Z,58.91
2023-02-26T12:23:46.353Z,59.66
2023-02-26T12:27:06.822Z,59.62
2023-02-26T12:31:06.885Z,59.13
2023-02-26T12:34:39.307Z,59.59
2023-02-26T12:38:08.428Z,58.68
2023-02-26T12:41:57.723Z,59.32
2023-02-26T12:45:34.097Z,58.72
2023-02-26T12:49:28.526Z,56.01
2023-02-26T12:53:14.429Z,55.86
2023-02-26T12:57:05.876Z,55.55
2023-02-26T13:00:48.878Z,54.42
2023-02-26T13:04:42.208Z,54.22
2023-02-26T13:08:22.055Z,55.79
2023-02-26T13:11:58.484Z,55.34
2023-02-26T13:15:33.704Z,56.32
2023-02-26T13:18:53.635Z,55.74
2023-02-26T13:22:10.300Z,56.26
2023-02-26T13:25:26.591Z,54.95
2023-02-26T13:28:46.601Z,54.59
2023-02-26T13:32:07.759Z,54.11
2023-02-26T13:35:28.415Z,54.66
2023-02-26T13:38:56.674Z,54.82
2023-02-26T13:42:25.317Z,55.32
2023-02-26T13:45:57.282Z,55.84
2023-02-26T13:49:17.729Z,55.59
2023-02-26T13:52:30.947Z,55.48
2023-02-26T13:55:47.505Z,55.52
2023-02-26T13:58:58.442Z,55.30
2023-02-26T14:02:40.929Z,54.91
2023-02-26T14:06:29.448Z,55.25
2023-02-26T14:09:55.865Z,54.89
2023-02-26T14:13:20.184Z,54.91
2023-02-26T14:16:31.924Z,54.77
2023-02-26T14:19:44.229Z,53.45
2023-02-26T14:22:55.937Z,54.18
2023-02-26T14:26:16.293Z,52.92
2023-02-26T14:29:42.554Z,52.93
2023-02-26T14:32:57.614Z,52.67
2023-02-26T14:36:19.249Z,52.71
2023-02-26T14:39:42.795Z,52.46
2023-02-26T14:42:56.892Z,53.38
2023-02-26T14:46:02.425Z,53.06
2023-02-26T14:49:21.733Z,53.26
2023-02-26T14:53:23.839Z,55.36
2023-02-26T14:56:55.164Z,55.26
2023-02-26T15:00:20.324Z,55.93
2023-02-26T15:04:00.803Z,56.54
2023-02-26T15:07:35.876Z,56.80
2023-02-26T15:11:09.821Z,57.24
2023-02-26T15:15:01.783Z,57.65
2023-02-26T15:18:34.379Z,57.66
2023-02-26T15:22:00.162Z,57.53
2023-02-26T15:25:22.089Z,57.24
2023-02-26T15:28:35.745Z,57.09
2023-02-26T15:31:54.216Z,57.60
2023-02-26T15:35:04.956Z,58.09
2023-02-26T15:38:13.809Z,58.59
2023-02-26T15:41:21.433Z,58.29
2023-02-26T15:44:33.644Z,59.62
2023-02-26T15:47:42.898Z,59.71
2023-02-26T15:50:57.667Z,60.38
2023-02-26T15:54:06.386Z,61.30
2023-02-26T15:57:15.922Z,61.65
2023-02-26T16:00:27.689Z,61.30
2023-02-26T16:03:40.585Z,61.96
2023-02-26T16:06:49.724Z,62.10
2023-02-26T16:09:58.883Z,60.92
2023-02-26T16:13:06.708Z,62.12
2023-02-26T16:16:22.151Z,61.85
2023-02-26T16:19:41.765Z,62.17
2023-02-26T16:22:53.776Z,61.60
2023-02-26T16:26:05.511Z,61.84
2023-02-26T16:29:21.309Z,62.07
2023-02-26T16:32:32.367Z,61.39
2023-02-26T16:35:49.384Z,61.41
2023-02-26T16:39:05.578Z,60.87
2023-02-26T16:42:19.202Z,61.42
2023-02-26T16:45:49.569Z,60.39
2023-02-26T16:49:02.496Z,59.68
2023-02-26T16:52:17.451Z,59.93
2023-02-26T16:55:24.032Z,60.32
2023-02-26T16:58:30.841Z,59.15
2023-02-26T17:01:44.611Z,59.32
2023-02-26T17:04:57.817Z,59.44
2023-02-26T17:08:17.772Z,59.70
2023-02-26T17:11:31.185Z,59.12
2023-02-26T17:14:44.454Z,58.88
2023-02-26T17:17:50.573Z,59.07
2023-02-26T17:20:58.495Z,59.36
2023-02-26T17:24:07.411Z,59.42
2023-02-26T17:27:21.534Z,59.28
2023-02-26T17:30:31.708Z,59.14
2023-02-26T17:33:41.386Z,58.07
2023-02-26T17:36:47.351Z,57.82
2023-02-26T17:39:57.774Z,57.96
2023-02-26T17:43:04.786Z,58.52
2023-02-26T17:46:14.780Z,58.48
2023-02-26T17:49:20.307Z,57.85
2023-02-26T17:52:26.930Z,57.71
2023-02-26T17:55:37.630Z,57.71
2023-02-26T17:58:45.730Z,57.06
2023-02-26T18:01:53.589Z,57.09
2023-02-26T18:05:00.156Z,56.65
2023-02-26T18:08:05.614Z,56.75
2023-02-26T18:11:15.923Z,57.28
2023-02-26T18:14:22.228Z,56.94
2023-02-26T18:17:34.439Z,56.86
2023-02-26T18:20:40.044Z,57.12
2023-02-26T18:23:47.418Z,56.84
2023-02-26T18:26:55.782Z,56.73
2023-02-26T18:30:03.042Z,56.31
2023-02-26T18:33:08.804Z,56.42
2023-02-26T18:36:34.656Z,56.74
2023-02-26T18:39:40.366Z,56.31
2023-02-26T18:42:49.480Z,56.54
2023-02-26T18:45:57.401Z,56.63
2023-02-26T18:49:04.442Z,56.34
2023-02-26T18:52:10.179Z,56.30
2023-02-26T18:55:17.111Z,56.15
2023-02-26T18:58:25.970Z,55.79
2023-02-26T19:01:32.582Z,55.57
2023-02-26T19:04:38.804Z,55.57
2023-02-26T19:07:45.710Z,55.72
2023-02-26T19:10:51.666Z,55.36
2023-02-26T19:14:01.436Z,55.30
2023-02-26T19:17:10.314Z,55.26
2023-02-26T19:20:17.984Z,54.45
2023-02-26T19:23:24.304Z,54.64
2023-02-26T19:26:30.798Z,54.57
2023-02-26T19:29:40.427Z,54.94
2023-02-26T19:32:46.961Z,55.02
2023-02-26T19:35:52.552Z,54.67
2023-02-26T19:38:59.145Z,54.29
2023-02-26T19:42:04.991Z,54.69
2023-02-26T19:45:16.055Z,55.10
2023-02-26T19:48:21.780Z,55.16
2023-02-26T19:51:28.738Z,55.30
2023-02-26T19:54:34.906Z,55.76
2023-02-26T19:57:41.373Z,55.33
2023-02-26T20:00:49.657Z,56.15
2023-02-26T20:03:56.463Z,54.54
2023-02-26T20:07:02.515Z,54.89
2023-02-26T20:10:11.045Z,54.63
2023-02-26T20:13:17.451Z,55.17
2023-02-26T20:16:26.584Z,55.29
2023-02-26T20:19:32.021Z,55.51
2023-02-26T20:22:38.725Z,55.61
2023-02-26T20:25:50.510Z,55.94
2023-02-26T20:28:57.084Z,56.43
2023-02-26T20:32:05.552Z,57.77
2023-02-26T20:35:13.598Z,57.13
2023-02-26T20:38:23.205Z,58.15
2023-02-26T20:41:29.786Z,58.64
2023-02-26T20:44:35.956Z,59.27
2023-02-26T20:47:45.214Z,59.95
2023-02-26T20:50:53.876Z,60.18
2023-02-26T20:54:00.373Z,61.18
2023-02-26T20:57:06.890Z,61.23
2023-02-26T21:00:15.626Z,61.22
2023-02-26T21:03:24.252Z,61.49
2023-02-26T21:06:31.180Z,61.98
2023-02-26T21:09:36.721Z,61.32
2023-02-26T21:12:44.061Z,62.01
2023-02-26T21:15:51.706Z,61.76
2023-02-26T21:19:03.896Z,62.01
2023-02-26T21:22:09.398Z,62.17
2023-02-26T21:25:16.020Z,62.46
2023-02-26T21:28:21.701Z,61.63
2023-02-26T21:31:28.399Z,62.14
2023-02-26T21:34:38.323Z,62.10
2023-02-26T21:37:45.013Z,61.62
2023-02-26T21:40:53.502Z,61.76
2023-02-26T21:44:00.102Z,62.14
2023-02-26T21:47:07.588Z,62.11
2023-02-26T21:50:17.299Z,62.24
2023-02-26T21:53:23.105Z,61.85
2023-02-26T21:56:29.411Z,61.58
2023-02-26T21:59:34.887Z,60.85
2023-02-26T22:02:42.434Z,60.93
2023-02-26T22:05:54.085Z,60.14
2023-02-26T22:09:00.389Z,60.41
2023-02-26T22:12:07.120Z,60.49
2023-02-26T22:15:14.446Z,60.99
2023-02-26T22:18:19.935Z,60.57
2023-02-26T22:21:29.349Z,60.58
2023-02-26T22:24:35.150Z,61.02
2023-02-26T22:27:41.819Z,60.27
2023-02-26T22:30:47.846Z,59.86
2023-02-26T22:33:54.138Z,60.47
2023-02-26T22:37:02.421Z,60.44
2023-02-26T22:40:10.060Z,59.85
2023-02-26T22:43:15.480Z,59.54
2023-02-26T22:46:24.502Z,59.98
2023-02-26T22:49:30.358Z,59.54
2023-02-26T22:52:39.413Z,59.15
2023-02-26T22:55:44.971Z,59.71
2023-02-26T22:58:51.273Z,59.19
2023-02-26T23:01:56.818Z,59.92
2023-02-26T23:05:03.223Z,59.93
2023-02-26T23:08:11.658Z,58.41
2023-02-26T23:11:17.928Z,58.97
2023-02-26T23:14:23.489Z,59.27
2023-02-26T23:17:30.561Z,58.56
2023-02-26T23:20:36.152Z,58.71
2023-02-26T23:23:45.496Z,57.89
2023-02-26T23:26:51.076Z,58.40
2023-02-26T23:29:57.382Z,57.83
2023-02-26T23:33:02.908Z,58.69
2023-02-26T23:36:10.531Z,58.10
2023-02-26T23:39:18.818Z,58.21
2023-02-26T23:42:25.227Z,58.92
2023-02-26T23:45:30.710Z,58.86
2023-02-26T23:48:37.265Z,58.30
2023-02-26T23:51:42.709Z,57.78
2023-02-26T23:54:52.111Z,57.81
2023-02-26T23:57:57.553Z,57.80
